createdAt,value
2018-12-06T00:00:05.973Z,7.17
2018-12-06T00:02:34.611Z,7.19
2018-12-06T00:05:03.126Z,7.30
2018-12-06T00:07:31.751Z,7.20
2018-12-06T00:10:00.371Z,7.21
2018-12-06T00:12:28.915Z,7.27
2018-12-06T00:15:08.711Z,7.25
2018-12-06T00:17:37.219Z,7.27
2018-12-06T00:20:06.186Z,7.26
2018-12-06T00:22:34.680Z,7.23
2018-12-06T00:25:03.203Z,7.23
2018-12-06T00:27:31.771Z,7.33
2018-12-06T00:30:11.463Z,7.40
2018-12-06T00:32:40.031Z,7.36
2018-12-06T00:35:08.509Z,7.32
2018-12-06T00:37:37.054Z,7.30
2018-12-06T00:40:06.017Z,7.28
2018-12-06T00:42:34.596Z,7.32
2018-12-06T00:45:03.118Z,7.30
2018-12-06T00:47:31.683Z,7.31
2018-12-06T00:50:00.226Z,7.38
2018-12-06T00:52:28.679Z,7.48
2018-12-06T00:54:57.257Z,7.51
2018-12-06T00:57:25.800Z,7.48
2018-12-06T00:59:54.345Z,7.52
2018-12-06T01:02:23.009Z,7.52
2018-12-06T01:04:51.484Z,7.49
2018-12-06T01:07:19.936Z,7.50
2018-12-06T01:09:48.447Z,7.54
2018-12-06T01:12:18.997Z,7.51
2018-12-06T01:14:47.576Z,7.60
2018-12-06T01:17:16.054Z,7.58
2018-12-06T01:19:44.569Z,7.60
2018-12-06T01:22:13.071Z,7.65
2018-12-06T01:24:41.540Z,7.67
2018-12-06T01:27:10.049Z,7.65
2018-12-06T01:29:38.581Z,7.66
2018-12-06T01:32:07.141Z,7.70
2018-12-06T01:34:35.608Z,7.70
2018-12-06T01:37:04.131Z,7.74
2018-12-06T01:39:32.594Z,7.69
2018-12-06T01:42:01.091Z,7.78
2018-12-06T01:44:29.609Z,7.81
2018-12-06T01:46:58.199Z,7.84
2018-12-06T01:49:26.767Z,7.83
2018-12-06T01:51:55.305Z,7.71
2018-12-06T01:54:23.924Z,7.74
2018-12-06T01:56:52.430Z,7.78
2018-12-06T01:59:20.925Z,7.83
2018-12-06T02:01:49.465Z,7.80
2018-12-06T02:04:17.986Z,7.74
2018-12-06T02:06:46.524Z,7.72
2018-12-06T02:09:15.072Z,7.70
2018-12-06T02:11:43.674Z,7.77
2018-12-06T02:14:12.160Z,7.78
2018-12-06T02:16:40.636Z,7.79
2018-12-06T02:19:09.312Z,7.82
2018-12-06T02:21:37.924Z,7.84
2018-12-06T02:24:06.449Z,7.83
2018-12-06T02:26:34.980Z,7.86
2018-12-06T02:29:03.642Z,7.89
2018-12-06T02:31:32.145Z,7.87
2018-12-06T02:34:00.704Z,7.88
2018-12-06T02:36:29.256Z,7.88
2018-12-06T02:38:58.025Z,7.90
2018-12-06T02:41:26.637Z,7.93
2018-12-06T02:43:55.298Z,7.94
2018-12-06T02:46:24.050Z,8.02
2018-12-06T02:48:52.586Z,8.00
2018-12-06T02:51:21.205Z,8.00
2018-12-06T02:53:49.772Z,7.99
2018-12-06T02:56:18.322Z,8.02
2018-12-06T02:58:46.796Z,8.09
2018-12-06T03:01:15.311Z,8.07
2018-12-06T03:03:43.788Z,8.11
2018-12-06T03:06:12.308Z,8.12
2018-12-06T03:08:40.936Z,8.08
2018-12-06T03:11:09.655Z,8.10
2018-12-06T03:13:38.237Z,8.12
2018-12-06T03:16:06.844Z,8.07
2018-12-06T03:18:35.375Z,8.18
2018-12-06T03:21:03.900Z,8.13
2018-12-06T03:23:32.784Z,8.12
2018-12-06T03:26:01.284Z,8.13
2018-12-06T03:28:29.885Z,8.15
2018-12-06T03:30:58.398Z,8.12
2018-12-06T03:33:27.178Z,8.08
2018-12-06T03:35:55.913Z,8.05
2018-12-06T03:38:24.429Z,8.01
2018-12-06T03:40:53.016Z,8.01
2018-12-06T03:43:21.536Z,8.08
2018-12-06T03:45:50.027Z,8.07
2018-12-06T03:48:18.630Z,8.04
2018-12-06T03:50:47.167Z,8.05
2018-12-06T03:53:15.763Z,8.07
2018-12-06T03:55:44.262Z,8.09
2018-12-06T03:58:12.917Z,8.06
2018-12-06T04:00:42.521Z,8.05
2018-12-06T04:03:10.991Z,8.04
2018-12-06T04:05:39.491Z,8.08
2018-12-06T04:08:14.920Z,8.10
2018-12-06T04:10:43.407Z,8.12
2018-12-06T04:13:11.861Z,8.12
2018-12-06T04:15:40.424Z,8.12
2018-12-06T04:18:08.896Z,8.14
2018-12-06T04:20:37.431Z,8.15
2018-12-06T04:23:05.983Z,8.17
2018-12-06T04:25:34.615Z,8.19
2018-12-06T04:28:03.201Z,8.20
2018-12-06T04:30:31.741Z,8.28
2018-12-06T04:33:00.243Z,8.31
2018-12-06T04:35:28.858Z,8.29
2018-12-06T04:37:57.373Z,8.26
2018-12-06T04:40:25.847Z,8.36
2018-12-06T04:42:54.332Z,8.35
2018-12-06T04:45:22.824Z,8.38
2018-12-06T04:47:51.296Z,8.33
2018-12-06T04:50:19.811Z,8.35
2018-12-06T04:52:48.301Z,8.37
2018-12-06T04:55:16.783Z,8.36
2018-12-06T04:57:45.254Z,8.33
2018-12-06T05:00:13.749Z,8.35
2018-12-06T05:02:42.333Z,8.36
2018-12-06T05:05:11.149Z,8.34
2018-12-06T05:07:39.668Z,8.34
2018-12-06T05:10:08.411Z,8.38
2018-12-06T05:12:36.969Z,8.38
2018-12-06T05:15:05.868Z,8.39
2018-12-06T05:17:35.438Z,8.45
2018-12-06T05:20:04.252Z,8.46
2018-12-06T05:22:32.772Z,8.46
2018-12-06T05:25:01.296Z,8.45
2018-12-06T05:27:29.808Z,8.52
2018-12-06T05:29:58.316Z,8.56
2018-12-06T05:32:26.807Z,8.53
2018-12-06T05:34:55.308Z,8.55
2018-12-06T05:37:23.804Z,8.56
2018-12-06T05:39:52.289Z,8.60
2018-12-06T05:42:20.873Z,8.60
2018-12-06T05:44:49.379Z,8.69
2018-12-06T05:47:17.928Z,8.71
2018-12-06T05:49:47.340Z,8.73
2018-12-06T05:52:16.141Z,8.69
2018-12-06T05:54:44.676Z,8.69
2018-12-06T05:57:13.243Z,8.69
2018-12-06T05:59:41.822Z,8.71
2018-12-06T06:02:10.357Z,8.76
2018-12-06T06:04:38.864Z,8.78
2018-12-06T06:07:07.356Z,8.75
2018-12-06T06:09:35.912Z,8.76
2018-12-06T06:12:04.618Z,8.87
2018-12-06T06:14:33.141Z,8.88
2018-12-06T06:17:01.644Z,8.85
2018-12-06T06:19:30.156Z,8.84
2018-12-06T06:21:58.743Z,8.89
2018-12-06T06:27:10.182Z,8.96
2018-12-06T06:29:38.676Z,8.99
2018-12-06T06:32:07.153Z,8.98
2018-12-06T06:34:35.814Z,9.00
2018-12-06T06:37:04.311Z,9.01
2018-12-06T06:39:32.783Z,9.03
2018-12-06T06:42:01.304Z,9.05
2018-12-06T06:44:29.823Z,9.10
2018-12-06T06:46:58.300Z,9.10
2018-12-06T06:49:26.804Z,9.10
2018-12-06T06:51:55.291Z,9.12
2018-12-06T06:54:23.895Z,9.19
2018-12-06T06:56:52.448Z,9.20
2018-12-06T06:59:26.117Z,9.22
2018-12-06T07:01:51.733Z,9.21
2018-12-06T07:04:20.196Z,9.23
2018-12-06T07:06:48.686Z,9.26
2018-12-06T07:09:17.504Z,9.26
2018-12-06T07:11:46.048Z,9.24
2018-12-06T07:14:14.597Z,9.26
2018-12-06T07:16:43.417Z,9.30
2018-12-06T07:19:11.916Z,9.30
2018-12-06T07:21:40.434Z,9.28
2018-12-06T07:24:08.966Z,9.27
2018-12-06T07:26:37.544Z,9.29
2018-12-06T07:29:06.185Z,9.36
2018-12-06T07:31:34.709Z,9.38
2018-12-06T07:34:03.277Z,9.38
2018-12-06T07:36:31.778Z,9.44
2018-12-06T07:39:00.312Z,9.47
2018-12-06T07:41:28.876Z,9.49
2018-12-06T07:43:57.349Z,9.52
2018-12-06T07:46:25.916Z,9.52
2018-12-06T07:48:54.410Z,9.54
2018-12-06T07:51:22.947Z,9.52
2018-12-06T07:53:51.438Z,9.55
2018-12-06T07:56:19.961Z,9.49
2018-12-06T07:58:48.476Z,9.52
2018-12-06T08:01:17.114Z,9.52
2018-12-06T08:03:45.608Z,9.52
2018-12-06T08:06:14.148Z,9.57
2018-12-06T08:08:42.660Z,9.60
2018-12-06T08:12:43.882Z,9.66
2018-12-06T08:15:12.364Z,9.66
2018-12-06T08:17:41.056Z,9.74
2018-12-06T08:20:09.594Z,9.70
2018-12-06T08:22:38.123Z,9.69
2018-12-06T08:25:06.652Z,9.75
2018-12-06T08:27:35.112Z,9.76
2018-12-06T08:30:04.027Z,9.76
2018-12-06T08:32:32.540Z,9.79
2018-12-06T08:35:01.016Z,9.79
2018-12-06T08:37:29.496Z,9.81
2018-12-06T08:39:57.973Z,9.91
2018-12-06T08:42:26.476Z,9.88
2018-12-06T08:44:54.972Z,9.94
2018-12-06T08:47:23.522Z,9.95
2018-12-06T08:49:52.644Z,9.98
2018-12-06T08:52:21.318Z,9.98
2018-12-06T08:54:56.504Z,10.01
2018-12-06T08:57:25.371Z,10.03
2018-12-06T08:59:53.845Z,10.09
2018-12-06T09:02:22.385Z,10.08
2018-12-06T09:04:51.045Z,10.09
2018-12-06T09:07:19.514Z,10.11
2018-12-06T09:09:48.016Z,10.13
2018-12-06T09:12:16.621Z,10.14
2018-12-06T09:14:45.080Z,10.21
2018-12-06T09:17:13.555Z,10.21
2018-12-06T09:19:42.037Z,10.20
2018-12-06T09:22:10.536Z,10.26
2018-12-06T09:24:39.060Z,10.33
2018-12-06T09:27:07.528Z,10.29
2018-12-06T09:29:36.079Z,10.28
2018-12-06T09:32:04.728Z,10.32
2018-12-06T09:34:39.743Z,10.38
2018-12-06T09:37:08.370Z,10.40
2018-12-06T09:39:36.841Z,10.43
2018-12-06T09:42:05.453Z,10.41
2018-12-06T09:44:33.998Z,10.37
2018-12-06T09:47:02.534Z,10.42
2018-12-06T09:49:32.785Z,10.44
2018-12-06T09:52:01.442Z,10.44
2018-12-06T09:54:29.904Z,10.54
2018-12-06T09:56:58.409Z,10.53
2018-12-06T09:59:27.042Z,10.60
2018-12-06T10:01:55.517Z,10.59
2018-12-06T10:04:24.004Z,10.54
2018-12-06T10:06:52.544Z,10.59
2018-12-06T10:09:21.061Z,10.63
2018-12-06T10:11:49.529Z,10.64
2018-12-06T10:14:19.615Z,10.64
2018-12-06T10:16:48.352Z,10.72
2018-12-06T10:19:16.833Z,10.71
2018-12-06T10:21:45.295Z,10.69
2018-12-06T10:24:13.892Z,10.77
2018-12-06T10:26:42.381Z,10.79
2018-12-06T10:29:10.909Z,10.78
2018-12-06T10:31:39.572Z,10.84
2018-12-06T10:34:08.208Z,10.83
2018-12-06T10:36:36.701Z,10.85
2018-12-06T10:39:07.970Z,10.86
2018-12-06T10:41:36.748Z,10.87
2018-12-06T10:44:05.362Z,10.89
2018-12-06T10:46:33.841Z,10.92
2018-12-06T10:49:02.325Z,10.91
2018-12-06T10:51:40.812Z,10.96
2018-12-06T10:54:09.380Z,10.94
2018-12-06T10:56:37.941Z,10.98
2018-12-06T10:59:06.451Z,10.98
2018-12-06T11:01:40.097Z,10.98
2018-12-06T11:04:08.632Z,10.95
2018-12-06T11:06:37.264Z,10.99
2018-12-06T11:09:07.741Z,11.01
2018-12-06T11:11:36.380Z,11.05
2018-12-06T11:14:04.996Z,11.09
2018-12-06T11:16:33.573Z,11.14
2018-12-06T11:19:02.193Z,11.15
2018-12-06T11:21:30.812Z,11.16
2018-12-06T11:23:59.417Z,11.22
2018-12-06T11:26:27.884Z,11.15
2018-12-06T11:28:56.373Z,11.21
2018-12-06T11:31:24.915Z,11.28
2018-12-06T11:33:53.411Z,11.35
2018-12-06T11:36:21.985Z,11.33
2018-12-06T11:38:50.555Z,11.30
2018-12-06T11:41:19.217Z,11.30
2018-12-06T11:43:47.714Z,11.33
2018-12-06T11:46:16.245Z,11.44
2018-12-06T11:48:44.799Z,11.38
2018-12-06T11:51:13.315Z,11.37
2018-12-06T11:53:41.788Z,11.45
2018-12-06T11:56:10.261Z,11.50
2018-12-06T11:58:38.782Z,11.52
2018-12-06T12:01:07.280Z,11.46
2018-12-06T12:03:35.800Z,11.51
2018-12-06T12:06:04.291Z,11.52
2018-12-06T12:08:32.788Z,11.54
2018-12-06T12:11:01.315Z,11.53
2018-12-06T12:13:31.245Z,11.59
2018-12-06T12:16:00.235Z,11.58
2018-12-06T12:18:28.881Z,11.58
2018-12-06T12:20:57.350Z,11.69
2018-12-06T12:23:25.832Z,11.65
2018-12-06T12:25:54.316Z,11.63
2018-12-06T12:28:22.784Z,11.64
2018-12-06T12:30:51.445Z,11.64
2018-12-06T12:33:20.002Z,11.64
2018-12-06T12:35:48.532Z,11.64
2018-12-06T12:38:17.069Z,11.59
2018-12-06T12:40:45.547Z,11.58
2018-12-06T12:43:14.152Z,11.65
2018-12-06T12:45:42.679Z,11.57
2018-12-06T12:48:11.170Z,11.61
2018-12-06T12:50:39.808Z,11.58
2018-12-06T12:53:08.252Z,11.54
2018-12-06T12:55:36.974Z,11.48
2018-12-06T12:58:05.459Z,11.51
2018-12-06T13:00:34.027Z,11.42
2018-12-06T13:03:02.568Z,11.39
2018-12-06T13:05:31.185Z,11.39
2018-12-06T13:07:59.793Z,11.35
2018-12-06T13:10:28.300Z,11.31
2018-12-06T13:12:56.828Z,11.31
2018-12-06T13:15:25.311Z,11.36
2018-12-06T13:17:53.784Z,11.40
2018-12-06T13:20:23.269Z,11.38
2018-12-06T13:22:51.763Z,11.37
2018-12-06T13:25:20.369Z,11.44
2018-12-06T13:27:49.003Z,11.43
2018-12-06T13:30:17.964Z,11.37
2018-12-06T13:32:46.541Z,11.33
2018-12-06T13:35:15.367Z,11.35
2018-12-06T13:37:43.865Z,11.39
2018-12-06T13:40:12.404Z,11.32
2018-12-06T13:42:40.895Z,11.30
2018-12-06T13:45:09.463Z,11.18
2018-12-06T13:47:38.097Z,11.16
2018-12-06T13:50:07.049Z,11.14
2018-12-06T13:52:35.565Z,11.11
2018-12-06T13:55:04.587Z,11.11
2018-12-06T13:57:33.138Z,11.06
2018-12-06T14:00:01.680Z,11.07
2018-12-06T14:02:30.219Z,11.04
2018-12-06T14:04:58.751Z,11.02
2018-12-06T14:07:27.380Z,11.08
2018-12-06T14:09:55.870Z,11.04
2018-12-06T14:12:24.400Z,11.06
2018-12-06T14:14:53.039Z,11.05
2018-12-06T14:17:21.732Z,11.12
2018-12-06T14:19:50.206Z,11.13
2018-12-06T14:22:18.956Z,11.08
2018-12-06T14:24:47.492Z,11.07
2018-12-06T14:27:16.031Z,11.08
2018-12-06T14:29:44.690Z,11.12
2018-12-06T14:32:13.216Z,11.08
2018-12-06T14:34:41.788Z,11.05
2018-12-06T14:37:10.263Z,11.10
2018-12-06T14:39:38.949Z,11.10
2018-12-06T14:42:07.515Z,11.08
2018-12-06T14:44:36.446Z,11.06
2018-12-06T14:47:04.987Z,11.05
2018-12-06T14:49:33.528Z,11.06
2018-12-06T14:52:02.229Z,11.06
2018-12-06T14:54:30.821Z,11.04
2018-12-06T14:56:59.599Z,11.09
2018-12-06T14:59:28.073Z,11.09
2018-12-06T15:01:56.598Z,11.08
2018-12-06T15:04:25.352Z,11.02
2018-12-06T15:06:54.041Z,11.04
2018-12-06T15:09:22.875Z,11.02
2018-12-06T15:11:51.631Z,11.03
2018-12-06T15:14:20.520Z,11.03
2018-12-06T15:16:49.332Z,11.01
2018-12-06T15:19:18.215Z,11.02
2018-12-06T15:21:46.876Z,11.02
2018-12-06T15:24:15.564Z,11.03
2018-12-06T15:26:44.046Z,11.03
2018-12-06T15:29:12.530Z,10.98
2018-12-06T15:31:41.059Z,11.00
2018-12-06T15:34:09.626Z,11.03
2018-12-06T15:36:38.173Z,11.05
2018-12-06T15:39:08.383Z,11.01
2018-12-06T15:41:36.969Z,11.00
2018-12-06T15:44:05.459Z,11.06
2018-12-06T15:46:34.025Z,11.05
2018-12-06T15:49:02.492Z,11.07
2018-12-06T15:51:30.981Z,11.01
2018-12-06T15:53:59.488Z,11.03
2018-12-06T15:56:28.068Z,10.98
2018-12-06T15:58:56.602Z,11.00
2018-12-06T16:01:25.087Z,10.95
2018-12-06T16:03:53.564Z,10.98
2018-12-06T16:06:22.169Z,11.04
2018-12-06T16:08:50.665Z,11.05
2018-12-06T16:11:19.269Z,11.04
2018-12-06T16:13:47.879Z,11.05
2018-12-06T16:16:16.332Z,11.03
2018-12-06T16:18:44.875Z,11.05
2018-12-06T16:21:13.365Z,11.05
2018-12-06T16:23:41.893Z,11.09
2018-12-06T16:26:10.401Z,11.10
2018-12-06T16:28:38.887Z,11.06
2018-12-06T16:31:07.455Z,11.15
2018-12-06T16:33:36.065Z,11.12
2018-12-06T16:36:04.684Z,11.11
2018-12-06T16:38:33.219Z,11.13
2018-12-06T16:41:01.948Z,11.15
2018-12-06T16:43:30.501Z,11.12
2018-12-06T16:45:58.977Z,11.19
2018-12-06T16:48:27.532Z,11.27
2018-12-06T16:50:56.034Z,11.18
2018-12-06T16:53:24.508Z,11.25
2018-12-06T16:55:53.083Z,11.25
2018-12-06T16:58:21.537Z,11.20
2018-12-06T17:00:50.168Z,11.21
2018-12-06T17:03:18.895Z,11.26
2018-12-06T17:05:47.545Z,11.27
2018-12-06T17:08:16.311Z,11.33
2018-12-06T17:10:44.865Z,11.32
2018-12-06T17:13:13.331Z,11.31
2018-12-06T17:15:41.828Z,11.34
2018-12-06T17:18:10.333Z,11.36
2018-12-06T17:20:39.050Z,11.34
2018-12-06T17:23:07.534Z,11.32
2018-12-06T17:25:36.052Z,11.33
2018-12-06T17:28:04.653Z,11.34
2018-12-06T17:30:33.221Z,11.35
2018-12-06T17:33:01.881Z,11.37
2018-12-06T17:35:30.467Z,11.36
2018-12-06T17:37:58.964Z,11.35
2018-12-06T17:40:27.609Z,11.36
2018-12-06T17:42:56.226Z,11.34
2018-12-06T17:45:24.858Z,11.36
2018-12-06T17:47:53.383Z,11.42
2018-12-06T17:50:21.972Z,11.38
2018-12-06T17:52:50.492Z,11.32
2018-12-06T17:55:19.060Z,11.33
2018-12-06T17:57:47.650Z,11.36
2018-12-06T18:00:16.210Z,11.37
2018-12-06T18:02:44.687Z,11.38
2018-12-06T18:05:13.373Z,11.37
2018-12-06T18:07:41.919Z,11.37
2018-12-06T18:10:11.370Z,11.39
2018-12-06T18:12:40.068Z,11.34
2018-12-06T18:15:09.398Z,11.35
2018-12-06T18:17:37.869Z,11.35
2018-12-06T18:20:07.253Z,11.34
2018-12-06T18:22:35.805Z,11.33
2018-12-06T18:25:04.580Z,11.34
2018-12-06T18:27:33.345Z,11.35
2018-12-06T18:30:01.903Z,11.34
2018-12-06T18:32:30.405Z,11.33
2018-12-06T18:34:59.057Z,11.34
2018-12-06T18:37:27.568Z,11.32
2018-12-06T18:39:56.056Z,11.34
2018-12-06T18:42:24.611Z,11.36
2018-12-06T18:44:53.112Z,11.35
2018-12-06T18:47:22.415Z,11.36
2018-12-06T18:49:51.061Z,11.35
2018-12-06T18:52:19.582Z,11.40
2018-12-06T18:54:48.101Z,11.37
2018-12-06T18:57:16.685Z,11.37
2018-12-06T18:59:45.327Z,11.33
2018-12-06T19:02:13.891Z,11.38
2018-12-06T19:04:42.411Z,11.37
2018-12-06T19:07:10.982Z,11.36
2018-12-06T19:09:40.784Z,11.36
2018-12-06T19:12:09.263Z,11.41
2018-12-06T19:14:37.754Z,11.41
2018-12-06T19:17:06.289Z,11.41
2018-12-06T19:19:34.885Z,11.39
2018-12-06T19:22:03.497Z,11.40
2018-12-06T19:24:31.957Z,11.43
2018-12-06T19:27:00.578Z,11.43
2018-12-06T19:29:29.197Z,11.43
2018-12-06T19:31:57.868Z,11.43
2018-12-06T19:34:26.440Z,11.47
2018-12-06T19:36:55.230Z,11.47
2018-12-06T19:39:23.851Z,11.48
2018-12-06T19:41:52.379Z,11.49
2018-12-06T19:44:21.829Z,11.49
2018-12-06T19:46:50.340Z,11.51
2018-12-06T19:49:19.098Z,11.50
2018-12-06T19:51:47.587Z,11.53
2018-12-06T19:54:16.216Z,11.53
2018-12-06T19:56:44.780Z,11.55
2018-12-06T19:59:13.436Z,11.54
2018-12-06T20:01:41.924Z,11.58
2018-12-06T20:04:10.497Z,11.63
2018-12-06T20:06:39.008Z,11.61
2018-12-06T20:09:09.477Z,11.64
2018-12-06T20:11:38.180Z,11.61
2018-12-06T20:14:06.799Z,11.64
2018-12-06T20:16:35.280Z,11.66
2018-12-06T20:19:04.024Z,11.63
2018-12-06T20:21:32.738Z,11.65
2018-12-06T20:24:01.229Z,11.68
2018-12-06T20:26:29.720Z,11.68
2018-12-06T20:28:58.461Z,11.63
2018-12-06T20:31:27.138Z,11.63
2018-12-06T20:33:56.228Z,11.63
2018-12-06T20:36:25.372Z,11.66
2018-12-06T20:38:54.180Z,11.65
2018-12-06T20:41:22.908Z,11.70
2018-12-06T20:43:52.205Z,11.67
2018-12-06T20:46:20.894Z,11.72
2018-12-06T20:48:49.380Z,11.75
2018-12-06T20:51:17.866Z,11.78
2018-12-06T20:53:46.444Z,11.81
2018-12-06T20:56:14.984Z,11.81
2018-12-06T20:58:44.425Z,11.80
2018-12-06T21:01:12.962Z,11.81
2018-12-06T21:03:41.572Z,11.82
2018-12-06T21:06:10.393Z,11.83
2018-12-06T21:08:38.940Z,11.82
2018-12-06T21:11:07.471Z,11.84
2018-12-06T21:13:36.144Z,11.78
2018-12-06T21:16:05.847Z,11.73
2018-12-06T21:18:34.321Z,11.82
2018-12-06T21:21:02.813Z,11.85
2018-12-06T21:23:31.416Z,11.78
2018-12-06T21:26:00.155Z,11.68
2018-12-06T21:28:28.681Z,11.59
2018-12-06T21:30:57.185Z,11.54
2018-12-06T21:33:25.663Z,11.51
2018-12-06T21:35:54.209Z,11.47
2018-12-06T21:38:22.700Z,11.47
2018-12-06T21:40:51.263Z,11.48
2018-12-06T21:43:19.749Z,11.49
2018-12-06T21:45:48.305Z,11.49
2018-12-06T21:48:16.863Z,11.47
2018-12-06T21:50:45.399Z,11.47
2018-12-06T21:53:13.867Z,11.45
2018-12-06T21:55:42.541Z,11.40
2018-12-06T21:58:11.052Z,11.35
2018-12-06T22:00:39.556Z,11.33
2018-12-06T22:03:08.055Z,11.34
2018-12-06T22:05:36.592Z,11.30
2018-12-06T22:08:05.297Z,11.37
2018-12-06T22:10:33.945Z,11.33
2018-12-06T22:13:03.128Z,11.32
2018-12-06T22:15:32.411Z,11.29
2018-12-06T22:18:00.923Z,11.29
2018-12-06T22:20:29.591Z,11.30
2018-12-06T22:23:01.072Z,11.30
2018-12-06T22:25:28.736Z,11.29
2018-12-06T22:27:57.217Z,11.28
2018-12-06T22:30:26.104Z,11.26
2018-12-06T22:32:54.720Z,11.25
2018-12-06T22:35:23.282Z,11.27
2018-12-06T22:37:52.065Z,11.24
2018-12-06T22:40:20.660Z,11.27
2018-12-06T22:42:49.269Z,11.27
2018-12-06T22:46:29.396Z,11.21
2018-12-06T22:49:00.281Z,11.18
2018-12-06T22:51:29.077Z,11.16
2018-12-06T22:53:57.827Z,11.16
2018-12-06T22:56:28.170Z,11.14
2018-12-06T22:58:56.696Z,11.15
2018-12-06T23:01:30.710Z,11.15
2018-12-06T23:03:59.879Z,11.14
2018-12-06T23:06:28.489Z,11.12
2018-12-06T23:08:56.983Z,11.15
2018-12-06T23:11:25.464Z,11.21
2018-12-06T23:13:54.043Z,11.18
2018-12-06T23:16:22.546Z,11.20
2018-12-06T23:18:51.081Z,11.18
2018-12-06T23:21:19.556Z,11.15
2018-12-06T23:23:48.040Z,11.17
2018-12-06T23:26:16.745Z,11.16
2018-12-06T23:28:45.215Z,11.15
2018-12-06T23:31:14.257Z,11.16
2018-12-06T23:33:42.789Z,11.15
2018-12-06T23:36:11.906Z,11.20
2018-12-06T23:38:40.589Z,11.17
2018-12-06T23:41:09.155Z,11.18
2018-12-06T23:43:37.707Z,11.15
2018-12-06T23:46:06.190Z,11.17
2018-12-06T23:48:35.290Z,11.20
2018-12-06T23:51:15.052Z,11.19
2018-12-06T23:53:43.604Z,11.22
2018-12-06T23:56:12.128Z,11.18
2018-12-06T23:58:40.670Z,11.16
